createdAt,value
2022-08-05T00:00:06.697Z,62.18
2022-08-05T00:05:09.711Z,66.28
2022-08-05T00:10:32.418Z,66.35
2022-08-05T00:15:54.913Z,64.50
2022-08-05T00:20:58.869Z,64.99
2022-08-05T00:26:01.334Z,63.20
2022-08-05T00:31:07.697Z,67.15
2022-08-05T00:36:16.172Z,68.63
2022-08-05T00:41:51.750Z,68.74
2022-08-05T00:47:02.196Z,70.40
2022-08-05T00:52:08.060Z,68.86
2022-08-05T00:57:10.604Z,68.88
2022-08-05T01:02:14.375Z,67.23
2022-08-05T01:07:19.106Z,72.72
2022-08-05T01:12:23.086Z,69.35
2022-08-05T01:17:30.844Z,68.23
2022-08-05T01:22:57.288Z,67.27
2022-08-05T01:28:16.583Z,68.75
2022-08-05T01:33:25.307Z,70.19
2022-08-05T01:38:30.197Z,68.09
2022-08-05T01:43:34.681Z,68.46
2022-08-05T01:48:40.007Z,67.33
2022-08-05T01:53:57.500Z,66.54
2022-08-05T01:59:05.674Z,67.17
2022-08-05T02:04:11.790Z,65.21
2022-08-05T02:09:14.748Z,66.02
2022-08-05T02:14:24.959Z,66.52
2022-08-05T02:19:34.683Z,66.31
2022-08-05T02:24:39.889Z,65.24
2022-08-05T02:29:58.388Z,65.63
2022-08-05T02:35:13.424Z,64.64
2022-08-05T02:40:18.049Z,64.09
2022-08-05T02:45:23.964Z,64.82
2022-08-05T02:50:28.389Z,64.54
2022-08-05T02:55:54.065Z,65.02
2022-08-05T03:00:58.276Z,65.62
2022-08-05T03:06:53.575Z,66.85
2022-08-05T03:11:54.739Z,66.41
2022-08-05T03:16:49.447Z,67.04
2022-08-05T03:21:55.962Z,66.81
2022-08-05T03:26:59.163Z,66.41
2022-08-05T03:32:04.557Z,66.67
2022-08-05T03:37:11.805Z,67.23
2022-08-05T03:42:16.840Z,67.11
2022-08-05T03:47:20.930Z,68.30
2022-08-05T03:52:36.958Z,68.71
2022-08-05T03:57:54.510Z,68.29
2022-08-05T04:03:01.244Z,67.45
2022-08-05T04:08:29.977Z,69.07
2022-08-05T04:13:49.712Z,67.41
2022-08-05T04:18:54.946Z,68.06
2022-08-05T04:24:06.403Z,69.27
2022-08-05T04:29:11.336Z,69.43
2022-08-05T04:34:18.481Z,67.59
2022-08-05T04:39:35.880Z,67.35
2022-08-05T04:44:38.662Z,67.80
2022-08-05T04:50:02.801Z,66.48
2022-08-05T04:55:14.264Z,65.09
2022-08-05T05:00:18.443Z,65.03
2022-08-05T05:05:28.808Z,64.72
2022-08-05T05:10:33.853Z,65.77
2022-08-05T05:15:56.796Z,66.51
2022-08-05T05:21:00.900Z,67.00
2022-08-05T05:26:03.383Z,69.17
2022-08-05T05:31:08.794Z,69.38
2022-08-05T05:36:12.936Z,69.92
2022-08-05T05:41:17.233Z,68.26
2022-08-05T05:46:21.850Z,68.21
2022-08-05T05:51:27.800Z,69.31
2022-08-05T05:56:34.839Z,68.68
2022-08-05T06:01:40.045Z,69.11
2022-08-05T06:06:47.753Z,71.50
2022-08-05T06:12:01.401Z,71.32
2022-08-05T06:17:22.044Z,70.79
2022-08-05T06:22:30.275Z,74.01
2022-08-05T06:28:10.540Z,75.70
2022-08-05T06:32:59.699Z,70.35
2022-08-05T06:38:10.104Z,69.02
2022-08-05T06:43:58.933Z,71.98
2022-08-05T06:48:56.455Z,73.34
2022-08-05T06:54:02.730Z,73.49
2022-08-05T06:59:09.632Z,73.89
2022-08-05T07:04:14.319Z,73.84
2022-08-05T07:09:25.563Z,74.38
2022-08-05T07:14:53.956Z,72.52
2022-08-05T07:25:54.472Z,73.78
2022-08-05T07:30:43.300Z,71.95
2022-08-05T07:36:01.995Z,71.93
2022-08-05T07:42:09.232Z,71.14
2022-08-05T07:46:34.466Z,72.13
2022-08-05T07:51:48.909Z,71.37
2022-08-05T07:57:02.704Z,69.77
2022-08-05T08:02:26.860Z,68.81
2022-08-05T08:07:39.767Z,68.51
2022-08-05T08:12:58.749Z,67.98
2022-08-05T08:18:01.977Z,68.20
2022-08-05T08:23:11.528Z,67.51
2022-08-05T08:28:37.122Z,67.08
2022-08-05T08:33:45.320Z,66.15
2022-08-05T08:38:53.424Z,64.96
2022-08-05T08:45:18.644Z,64.17
2022-08-05T08:50:12.984Z,63.43
2022-08-05T08:54:48.119Z,61.05
2022-08-05T08:59:52.082Z,59.45
2022-08-05T09:05:16.583Z,59.94
2022-08-05T09:10:21.201Z,59.92
2022-08-05T09:15:31.014Z,59.74
2022-08-05T09:20:37.435Z,60.64
2022-08-05T09:25:59.784Z,61.86
2022-08-05T09:31:22.321Z,60.98
2022-08-05T09:36:54.154Z,58.32
2022-08-05T09:42:01.061Z,57.49
2022-08-05T09:47:12.657Z,55.21
2022-08-05T09:52:24.710Z,54.07
2022-08-05T09:57:35.143Z,54.46
2022-08-05T10:02:42.238Z,53.64
2022-08-05T10:08:10.927Z,54.93
2022-08-05T10:13:44.199Z,55.18
2022-08-05T10:18:51.756Z,53.67
2022-08-05T10:24:00.033Z,52.27
2022-08-05T10:29:03.471Z,54.74
2022-08-05T10:34:08.360Z,52.77
2022-08-05T10:39:25.027Z,45.04
2022-08-05T10:44:38.995Z,42.99
2022-08-05T10:50:31.811Z,46.16
2022-08-05T10:56:03.477Z,42.92
2022-08-05T11:01:02.769Z,38.79
2022-08-05T11:06:15.266Z,36.60
2022-08-05T11:11:44.775Z,39.78
2022-08-05T11:18:00.179Z,43.23
2022-08-05T11:22:57.991Z,39.04
2022-08-05T11:28:39.652Z,37.92
2022-08-05T11:33:54.798Z,37.49
2022-08-05T11:38:59.053Z,37.49
2022-08-05T11:44:08.479Z,39.38
2022-08-05T11:49:14.439Z,37.47
2022-08-05T11:54:33.705Z,34.35
2022-08-05T11:59:50.055Z,34.76
2022-08-05T12:04:59.603Z,33.80
2022-08-05T12:10:09.077Z,36.50
2022-08-05T12:15:20.673Z,36.11
2022-08-05T12:20:41.358Z,36.18
2022-08-05T12:25:52.509Z,35.66
2022-08-05T12:30:57.442Z,37.29
2022-08-05T12:36:01.910Z,37.90
2022-08-05T12:41:12.974Z,38.27
2022-08-05T12:46:29.276Z,38.68
2022-08-05T12:52:13.455Z,39.53
2022-08-05T12:56:59.667Z,40.57
2022-08-05T13:02:07.957Z,41.63
2022-08-05T13:07:31.010Z,42.42
2022-08-05T13:12:57.141Z,43.81
2022-08-05T13:18:00.345Z,44.56
2022-08-05T13:23:07.303Z,44.04
2022-08-05T13:28:12.998Z,42.69
2022-08-05T13:34:23.963Z,42.20
2022-08-05T13:38:42.179Z,43.01
2022-08-05T13:43:54.867Z,43.94
2022-08-05T13:49:00.897Z,44.41
2022-08-05T13:54:03.722Z,44.64
2022-08-05T13:59:20.093Z,45.40
2022-08-05T14:04:41.387Z,45.09
2022-08-05T14:09:46.357Z,44.46
2022-08-05T14:14:51.362Z,44.36
2022-08-05T14:19:56.822Z,44.56
2022-08-05T14:25:06.169Z,45.67
2022-08-05T14:30:23.170Z,46.06
2022-08-05T14:35:37.543Z,46.62
2022-08-05T14:40:51.819Z,46.22
2022-08-05T14:45:55.664Z,45.66
2022-08-05T14:50:58.383Z,45.11
2022-08-05T14:56:03.493Z,43.57
2022-08-05T15:01:15.540Z,44.15
2022-08-05T15:06:19.414Z,45.87
2022-08-05T15:11:51.507Z,45.50
2022-08-05T15:16:54.221Z,44.35
2022-08-05T15:21:59.934Z,43.79
2022-08-05T15:27:03.464Z,54.96
2022-08-05T15:32:07.815Z,60.10
2022-08-05T15:37:14.779Z,63.70
2022-08-05T15:42:54.278Z,66.36
2022-08-05T15:47:43.484Z,68.52
2022-08-05T15:52:53.322Z,73.54
2022-08-05T15:57:57.689Z,73.17
2022-08-05T16:03:01.567Z,71.37
2022-08-05T16:08:05.241Z,71.68
2022-08-05T16:13:07.786Z,71.21
2022-08-05T16:18:12.488Z,69.32
2022-08-05T16:23:16.991Z,68.83
2022-08-05T16:28:19.577Z,67.82
2022-08-05T16:33:23.402Z,67.19
2022-08-05T16:38:29.527Z,67.73
2022-08-05T16:43:33.683Z,69.47
2022-08-05T16:48:39.120Z,69.14
2022-08-05T16:54:06.201Z,68.79
2022-08-05T16:59:08.168Z,69.12
2022-08-05T17:04:12.378Z,70.79
2022-08-05T17:09:17.790Z,70.61
2022-08-05T17:14:22.310Z,69.19
2022-08-05T17:19:42.364Z,69.26
2022-08-05T17:24:57.795Z,69.35
2022-08-05T17:30:02.464Z,67.30
2022-08-05T17:35:08.472Z,66.64
2022-08-05T17:40:17.633Z,65.61
2022-08-05T17:45:22.785Z,65.09
2022-08-05T17:50:33.057Z,65.81
2022-08-05T17:55:39.672Z,65.20
2022-08-05T18:00:47.828Z,67.38
2022-08-05T18:05:55.118Z,66.26
2022-08-05T18:11:04.463Z,66.21
2022-08-05T18:16:09.519Z,65.28
2022-08-05T18:21:21.182Z,65.23
2022-08-05T18:26:29.215Z,65.34
2022-08-05T18:31:32.938Z,65.27
2022-08-05T18:36:39.533Z,65.85
2022-08-05T18:41:55.881Z,65.47
2022-08-05T18:47:04.819Z,65.77
2022-08-05T18:52:33.127Z,66.36
2022-08-05T18:57:43.210Z,66.73
2022-08-05T19:02:53.222Z,66.43
2022-08-05T19:08:00.176Z,66.46
2022-08-05T19:13:02.792Z,67.76
2022-08-05T19:18:10.461Z,67.43
2022-08-05T19:24:05.881Z,66.66
2022-08-05T19:28:42.287Z,67.26
2022-08-05T19:33:48.229Z,69.52
2022-08-05T19:39:03.731Z,72.04
2022-08-05T19:44:13.027Z,71.43
2022-08-05T19:49:17.657Z,70.01
2022-08-05T19:54:31.285Z,69.85
2022-08-05T19:59:55.807Z,70.57
2022-08-05T20:04:58.715Z,68.40
2022-08-05T20:10:04.810Z,68.38
2022-08-05T20:15:14.151Z,68.87
2022-08-05T20:20:16.956Z,71.05
2022-08-05T20:25:23.187Z,73.78
2022-08-05T20:30:27.501Z,72.83
2022-08-05T20:35:31.594Z,73.52
2022-08-05T20:40:45.617Z,75.65
2022-08-05T20:45:56.190Z,75.00
2022-08-05T20:50:59.689Z,72.59
2022-08-05T20:56:12.059Z,72.09
2022-08-05T21:01:14.795Z,74.13
2022-08-05T21:06:27.609Z,72.48
2022-08-05T21:12:07.034Z,71.93
2022-08-05T21:16:55.299Z,70.74
2022-08-05T21:21:57.866Z,72.05
2022-08-05T21:27:01.774Z,73.82
2022-08-05T21:32:04.766Z,73.84
2022-08-05T21:37:08.136Z,72.85
2022-08-05T21:42:30.752Z,72.08
2022-08-05T21:47:56.745Z,71.30
2022-08-05T21:53:04.498Z,71.43
2022-08-05T21:58:20.214Z,71.56
2022-08-05T22:03:48.957Z,69.94
2022-08-05T22:08:51.819Z,70.26
2022-08-05T22:14:19.487Z,71.97
2022-08-05T22:20:00.303Z,72.54
2022-08-05T22:24:59.234Z,72.12
2022-08-05T22:30:03.281Z,74.55
2022-08-05T22:35:07.193Z,79.56
2022-08-05T22:40:10.777Z,80.29
2022-08-05T22:45:20.942Z,76.01
2022-08-05T22:50:27.790Z,75.47
2022-08-05T22:55:37.056Z,75.24
2022-08-05T23:00:54.686Z,72.81
2022-08-05T23:05:59.893Z,70.91
2022-08-05T23:11:03.576Z,72.54
2022-08-05T23:16:07.375Z,72.99
2022-08-05T23:21:10.918Z,74.42
2022-08-05T23:26:19.936Z,73.02
2022-08-05T23:31:25.505Z,71.57
2022-08-05T23:36:38.694Z,71.08
2022-08-05T23:41:48.607Z,71.79
2022-08-05T23:46:52.987Z,72.25
2022-08-05T23:52:12.982Z,71.69
2022-08-05T23:57:18.979Z,71.46
